• Join FlightAware (Why Join?)
  • Login
  • US Flag 
11:09AM EDT


 

Airport Tracker/Info


-or-


 

Live Flight TrackerFlight Track Log ✈ CHH7103 ✈ 07-Feb-2014 ✈ ZBAA / PEK - ZYMD / MDG

Flight Track Log - Related Links

Times and Time Zones

All times are in EST time to prevent confusion due to time zone crossing. See the CHH7103 flight status page for this flight to view local times or setup timezone preferences in your user account.

Time Position Orientation Groundspeed Altitude Reporting Facility
EST Latitude Longitude Course Direction KTS MPH feet Rate Location/Type
07:15PM 40.3074 117.1227 61° Northeast  Level Estimated
07:16PM 40.3639 117.2578 61° Northeast  Level Estimated
07:17PM 40.4201 117.3931 61° Northeast  Level Estimated
07:18PM 40.4763 117.5286 61° Northeast  Level Estimated
07:19PM 40.5322 117.6644 61° Northeast  Level Estimated
07:20PM 40.5880 117.8004 62° Northeast  Level Estimated
07:21PM 40.6437 117.9366 62° Northeast  Level Estimated
07:22PM 40.6991 118.0731 62° Northeast  Level Estimated
07:23PM 40.7545 118.2098 62° Northeast  Level Estimated
07:24PM 40.8096 118.3467 62° Northeast  Level Estimated
07:25PM 40.8646 118.4838 62° Northeast  Level Estimated
07:26PM 40.9195 118.6212 62° Northeast  Level Estimated
07:27PM 40.9741 118.7588 62° Northeast  Level Estimated
07:28PM 41.0286 118.8966 62° Northeast  Level Estimated
07:29PM 41.0830 119.0346 62° Northeast  Level Estimated
07:30PM 41.1372 119.1729 62° Northeast  Level Estimated
07:31PM 41.1912 119.3114 63° Northeast  Level Estimated
07:32PM 41.2450 119.4501 63° Northeast  Level Estimated
07:33PM 41.2987 119.5891 63° Northeast  Level Estimated
07:34PM 41.3522 119.7283 63° Northeast  Level Estimated
07:35PM 41.4056 119.8677 63° Northeast  Level Estimated
07:36PM 41.4588 120.0073 63° Northeast  Level Estimated
07:37PM 41.5118 120.1472 63° Northeast  Level Estimated
07:38PM 41.5646 120.2873 63° Northeast  Level Estimated
07:39PM 41.6173 120.4276 63° Northeast  Level Estimated
07:40PM 41.6698 120.5682 63° Northeast  Level Estimated
07:41PM 41.7221 120.7090 63° Northeast  Level Estimated
07:42PM 41.7743 120.8500 64° Northeast  Level Estimated
07:43PM 41.8262 120.9912 64° Northeast  Level Estimated
07:44PM 41.8780 121.1327 64° Northeast  Level Estimated
07:45PM 41.9297 121.2744 64° Northeast  Level Estimated
07:46PM 41.9811 121.4164 64° Northeast  Level Estimated
07:47PM 42.0324 121.5585 64° Northeast  Level Estimated
07:48PM 42.0835 121.7009 64° Northeast  Level Estimated
07:49PM 42.1344 121.8436 64° Northeast  Level Estimated
07:50PM 42.1852 121.9864 64° Northeast  Level Estimated
07:51PM 42.2358 122.1295 64° Northeast  Level Estimated
07:52PM 42.2862 122.2728 65° Northeast  Level Estimated
07:53PM 42.3364 122.4163 65° Northeast  Level Estimated
07:54PM 42.3865 122.5601 65° Northeast  Level Estimated
07:55PM 42.4363 122.7041 65° Northeast  Level Estimated
07:56PM 42.4860 122.8483 65° Northeast  Level Estimated
07:57PM 42.5355 122.9928 65° Northeast  Level Estimated
07:58PM 42.5848 123.1375 65° Northeast  Level Estimated
07:59PM 42.6339 123.2824 65° Northeast  Level Estimated
08:00PM 42.6829 123.4275 65° Northeast  Level Estimated
08:01PM 42.7317 123.5729 65° Northeast  Level Estimated
08:02PM 42.7803 123.7185 66° East  Level Estimated
08:03PM 42.8287 123.8643 66° East  Level Estimated
08:04PM 42.8769 124.0104 66° East  Level Estimated
08:05PM 42.9249 124.1566 66° East  Level Estimated
08:06PM 42.9728 124.3032 66° East  Level Estimated
08:07PM 43.0204 124.4499 66° East  Level Estimated
08:08PM 43.0679 124.5969 66° East  Level Estimated
08:09PM 43.1152 124.7441 66° East  Level Estimated
08:10PM 43.1623 124.8915 66° East  Level Estimated
08:11PM 43.2091 125.0391 66° East  Level Estimated
08:12PM 43.2559 125.1870 67° East  Level Estimated
08:13PM 43.3024 125.3351 67° East  Level Estimated
08:14PM 43.3487 125.4834 67° East  Level Estimated
08:15PM 43.3949 125.6320 67° East  Level Estimated
08:16PM 43.4408 125.7808 67° East  Level Estimated
08:17PM 43.4865 125.9298 67° East  Level Estimated
08:18PM 43.5321 126.0790 67° East  Level Estimated
08:19PM 43.5775 126.2284 67° East  Level Estimated
08:20PM 43.6226 126.3781 67° East  Level Estimated
08:21PM 43.6676 126.5280 67° East  Level Estimated
08:22PM 43.7124 126.6782 68° East  Level Estimated
08:23PM 43.7570 126.8285 68° East  Level Estimated
08:24PM 43.8013 126.9791 68° East  Level Estimated
08:25PM 43.8455 127.1299 68° East  Level Estimated
08:26PM 43.8895 127.2809 68° East  Level Estimated
08:27PM 43.9333 127.4322 68° East  Level Estimated
08:28PM 43.9769 127.5836 68° East  Level Estimated
08:29PM 44.0203 127.7353 68° East  Level Estimated
08:30PM 44.0635 127.8872 68° East  Level Estimated
08:31PM 44.1065 128.0394 68° East  Level Estimated
08:32PM 44.1492 128.1917 69° East  Level Estimated
08:33PM 44.1918 128.3443 69° East  Level Estimated
08:34PM 44.2342 128.4971 69° East  Level Estimated
08:35PM 44.2764 128.6501 69° East  Level Estimated
08:36PM 44.3183 128.8033 69° East  Level Estimated
08:37PM 44.3601 128.9568 69° East  Level Estimated
08:38PM 44.4016 129.1104 69° East  Level Estimated
08:39PM 44.4430 129.2643 69° East  Level Estimated
08:40PM 44.4841 129.4184 69° East  Level Estimated
08:41PM 44.5241 129.5690 70° East  Level Estimated
08:42PM 44.5241 129.5690 35° Northeast  Level Estimated
08:43PM 44.5241 129.5690 35° Northeast  Level Estimated
08:44PM 44.5241 129.5690 35° Northeast  Level Estimated
08:45PM 44.5241 129.5690 35° Northeast  Level Estimated
08:47PM 44.5241 129.5690 35° Northeast  Level Estimated
08:49PM 44.5241 129.5690 35° Northeast  Level Estimated
08:50PM 44.5241 129.5690 35° Northeast  Level Estimated
08:51PM 44.5241 129.5690 35° Northeast  Level Estimated
08:52PM 44.5241 129.5690 35° Northeast  Level Estimated
08:53PM 44.5241 129.5690 35° Northeast  Level Estimated
08:54PM 44.5241 129.5690 35° Northeast  Level Estimated
08:55PM 44.5241 129.5690 35° Northeast  Level Estimated
08:56PM 44.5241 129.5690 35° Northeast  Level Estimated
08:57PM 44.5241 129.5690 35° Northeast  Level Estimated
08:58PM 44.5241 129.5690 35° Northeast  Level Estimated
08:59PM 44.5241 129.5690 35° Northeast  Level Estimated
09:00PM 44.5241 129.5690 35° Northeast  Level Estimated
09:01PM 44.5241 129.5690 35° Northeast  Level Estimated
09:02PM 44.5241 129.5690 35° Northeast  Level Estimated
09:03PM 44.5241 129.5690 35° Northeast  Level Estimated
09:04PM 44.5241 129.5690 35° Northeast  Level Estimated
09:05PM 44.5241 129.5690 35° Northeast  Level Estimated
09:06PM 44.5241 129.5690 35° Northeast  Level Estimated
09:07PM 44.5241 129.5690 35° Northeast  Level Estimated
09:08PM 44.5241 129.5690 35° Northeast  Level Estimated
09:09PM 44.5241 129.5690 35° Northeast  Level Estimated
09:10PM 44.5241 129.5690 35° Northeast  Level Estimated
09:11PM 44.5241 129.5690 35° Northeast  Level Estimated
09:12PM 44.5241 129.5690 35° Northeast  Level Estimated
09:13PM 44.5241 129.5690 35° Northeast  Level Estimated
09:14PM 44.5241 129.5690 35° Northeast  Level Estimated
09:15PM 44.5241 129.5690 35° Northeast  Level Estimated
09:16PM 44.5241 129.5690 35° Northeast  Level Estimated
09:17PM 44.5241 129.5690 35° Northeast  Level Estimated
09:18PM 44.5241 129.5690 35° Northeast  Level Estimated
09:19PM 44.5241 129.5690 35° Northeast  Level Estimated
09:20PM 44.5241 129.5690 35° Northeast  Level Estimated
09:21PM 44.5241 129.5690 35° Northeast  Level Estimated
09:22PM 44.5241 129.5690 35° Northeast  Level Estimated
09:23PM 44.5241 129.5690 35° Northeast  Level Estimated
09:24PM 44.5241 129.5690 35° Northeast  Level Estimated
09:25PM 44.5241 129.5690 35° Northeast  Level Estimated
09:26PM 44.5241 129.5690 35° Northeast  Level Estimated
09:27PM 44.5241 129.5690 35° Northeast  Level Estimated
09:28PM 44.5241 129.5690 35° Northeast  Level Estimated
09:29PM 44.5241 129.5690 35° Northeast  Level Estimated
09:30PM 44.5241 129.5690 35° Northeast  Level Estimated
09:31PM 44.5241 129.5690 35° Northeast  Level Estimated
09:32PM 44.5241 129.5690 35° Northeast  Level Estimated
09:33PM 44.5241 129.5690 35° Northeast  Level Estimated
09:34PM 44.5241 129.5690 35° Northeast  Level Estimated
09:35PM 44.5241 129.5690 35° Northeast  Level Estimated
09:36PM 44.5241 129.5690 35° Northeast  Level Estimated
09:37PM 44.5241 129.5690 35° Northeast  Level Estimated
09:38PM 44.5241 129.5690 35° Northeast  Level Estimated
09:39PM 44.5241 129.5690 35° Northeast  Level Estimated
09:40PM 44.5241 129.5690 35° Northeast  Level Estimated
09:41PM 44.5241 129.5690 35° Northeast  Level Estimated
09:42PM 44.5241 129.5690 35° Northeast  Level Estimated
09:43PM 44.5241 129.5690 35° Northeast  Level Estimated
09:44PM 44.5241 129.5690 35° Northeast  Level Estimated
09:45PM 44.5241 129.5690 35° Northeast  Level Estimated
09:46PM 44.5241 129.5690 35° Northeast  Level Estimated
09:47PM 44.5241 129.5690 35° Northeast  Level Estimated
09:48PM 44.5241 129.5690 35° Northeast  Level Estimated
09:49PM 44.5241 129.5690 35° Northeast  Level Estimated
09:50PM 44.5241 129.5690 35° Northeast  Level Estimated
09:51PM 44.5241 129.5690 35° Northeast  Level Estimated
09:52PM 44.5241 129.5690 35° Northeast  Level Estimated
09:53PM 44.5241 129.5690 35° Northeast  Level Estimated
09:54PM 44.5241 129.5690 35° Northeast  Level Estimated
09:55PM 44.5241 129.5690 35° Northeast  Level Estimated
09:56PM 44.5241 129.5690 35° Northeast  Level Estimated
09:57PM 44.5241 129.5690 35° Northeast  Level Estimated
09:58PM 44.5241 129.5690 35° Northeast  Level Estimated
09:59PM 44.5241 129.5690 35° Northeast  Level Estimated
10:00PM 44.5241 129.5690 35° Northeast  Level Estimated
10:01PM 44.5241 129.5690 35° Northeast  Level Estimated
10:02PM 44.5241 129.5690 35° Northeast  Level Estimated
10:03PM 44.5241 129.5690 35° Northeast  Level Estimated
10:04PM 44.5241 129.5690 35° Northeast  Level Estimated
10:05PM 44.5241 129.5690 35° Northeast  Level Estimated
10:06PM 44.5241 129.5690 35° Northeast  Level Estimated